Dades de l'estació automàtica Òdena
Resum diari
21:30 TU| Temperatura mitjana | 15.4 °C | |
|---|---|---|
| Temperatura màxima | 22.5 °C | 12:00 TU |
| Temperatura mínima | 10.0 °C | 21:59 TU |
| Humitat relativa mitjana | 82% | |
| Precipitació acumulada | 25.5 mm | |
| Ratxa màxima del vent (10 m) | 36.4 km/h - 266º | 18:31 TU |
| Pressió atmosfèrica mitjana | 1012.2 hPa | |
| Irradiació solar global | 12.5 MJ/m2 | |
El tram horari està expressat en Temps Universal (TU). Cal sumar una hora en horari d'hivern i dues en horari d'estiu per passar a l'hora oficial.
Òdena
| Municipi | Òdena |
|---|---|
| Comarca | Anoia |
| Altitud | 333 m |
| Data alta | 31.05.1999 |
| Estat actual | Operativa |
| Període TU |
TM °C |
TX °C |
TN °C |
HRM % |
PPT mm |
VVM (10 m) km/h |
DVM (10 m) graus |
VVX (10 m) km/h |
PM hPa |
RS W/m2 |
|---|---|---|---|---|---|---|---|---|---|---|
| 00:00 - 00:30 | 14.0 | 14.1 | 14.0 | 87 | 0.0 | 0.4 | 149 | 2.9 | 1014.5 | 0 |
| 00:30 - 01:00 | 13.9 | 14.0 | 13.7 | 89 | 0.0 | 0.7 | 331 | 3.6 | 1014.4 | 0 |
| 01:00 - 01:30 | 13.9 | 14.0 | 13.8 | 88 | 0.0 | 0.4 | 28 | 2.9 | 1014.1 | 0 |
| 01:30 - 02:00 | 13.8 | 13.9 | 13.8 | 87 | 0.0 | 3.6 | 75 | 8.3 | 1013.8 | 0 |
| 02:00 - 02:30 | 13.7 | 13.8 | 13.6 | 85 | 0.0 | 4.7 | 75 | 10.4 | 1013.6 | 0 |
| 02:30 - 03:00 | 13.8 | 13.9 | 13.7 | 84 | 0.0 | 5.4 | 58 | 12.2 | 1013.5 | 0 |
| 03:00 - 03:30 | 13.9 | 13.9 | 13.8 | 83 | 0.0 | 7.2 | 77 | 12.2 | 1013.5 | 0 |
| 03:30 - 04:00 | 13.8 | 13.9 | 13.7 | 85 | 0.0 | 5.4 | 290 | 10.4 | 1013.8 | 0 |
| 04:00 - 04:30 | 13.8 | 13.9 | 13.7 | 86 | 0.0 | 3.2 | 311 | 7.6 | 1013.7 | 0 |
| 04:30 - 05:00 | 13.6 | 13.7 | 13.6 | 86 | 0.0 | 3.6 | 48 | 5.4 | 1013.5 | 1 |
| 05:00 - 05:30 | 13.7 | 13.8 | 13.6 | 86 | 0.0 | 2.2 | 86 | 4.7 | 1013.3 | 15 |
| 05:30 - 06:00 | 14.0 | 14.3 | 13.8 | 84 | 0.0 | 3.6 | 45 | 10.4 | 1013.0 | 71 |
| 06:00 - 06:30 | 14.9 | 15.7 | 14.3 | 81 | 0.0 | 5.0 | 146 | 16.2 | 1013.0 | 215 |
| 06:30 - 07:00 | 15.2 | 15.7 | 15.0 | 79 | 0.0 | 5.0 | 56 | 11.9 | 1013.3 | 86 |
| 07:00 - 07:30 | 15.7 | 16.7 | 15.4 | 78 | 0.0 | 3.6 | 117 | 7.6 | 1013.0 | 248 |
| 07:30 - 08:00 | 16.7 | 17.1 | 16.4 | 73 | 0.0 | 2.2 | 214 | 5.8 | 1012.8 | 352 |
| 08:00 - 08:30 | 17.6 | 18.7 | 17.1 | 70 | 0.0 | 3.6 | 83 | 10.4 | 1012.5 | 481 |
| 08:30 - 09:00 | 19.0 | 19.7 | 18.4 | 61 | 0.0 | 3.6 | 179 | 10.4 | 1012.2 | 664 |
| 09:00 - 09:30 | 18.6 | 19.1 | 18.3 | 62 | 0.0 | 5.0 | 260 | 10.8 | 1012.0 | 443 |
| 09:30 - 10:00 | 20.2 | 21.1 | 19.0 | 57 | 0.0 | 5.8 | 252 | 14.4 | 1011.3 | 813 |
| 10:00 - 10:30 | 20.5 | 21.2 | 20.3 | 56 | 0.0 | 7.2 | 158 | 14.0 | 1011.2 | 403 |
| 10:30 - 11:00 | 20.6 | 20.8 | 20.4 | 58 | 0.0 | 8.3 | 138 | 16.6 | 1011.1 | 314 |
| 11:00 - 11:30 | 21.0 | 21.7 | 20.4 | 60 | 0.0 | 12.6 | 129 | 22.0 | 1010.7 | 496 |
| 11:30 - 12:00 | 21.6 | 22.4 | 20.8 | 60 | 0.0 | 16.2 | 142 | 26.6 | 1010.2 | 886 |
| 12:00 - 12:30 | 18.8 | 22.5 | 15.8 | 79 | 7.2 | 14.0 | 124 | 24.8 | 1010.5 | 92 |
| 12:30 - 13:00 | 14.0 | 15.7 | 13.5 | 97 | 7.2 | 7.2 | 21 | 16.9 | 1011.5 | 57 |
| 13:00 - 13:30 | 14.1 | 14.4 | 13.9 | 98 | 2.8 | 10.4 | 70 | 18.0 | 1011.6 | 75 |
| 13:30 - 14:00 | 14.4 | 14.8 | 14.1 | 98 | 3.8 | 6.8 | 90 | 14.8 | 1011.8 | 44 |
| 14:00 - 14:30 | 15.0 | 15.8 | 14.7 | 95 | 0.3 | 4.7 | 111 | 11.2 | 1011.4 | 193 |
| 14:30 - 15:00 | 16.0 | 16.2 | 15.7 | 91 | 0.0 | 5.8 | 101 | 13.7 | 1011.0 | 196 |
| 15:00 - 15:30 | 16.7 | 17.0 | 16.1 | 86 | 0.0 | 4.7 | 94 | 10.4 | 1010.7 | 267 |
| 15:30 - 16:00 | 17.1 | 17.2 | 17.0 | 83 | 0.0 | 5.4 | 112 | 10.1 | 1010.5 | 206 |
| 16:00 - 16:30 | 16.9 | 17.3 | 16.6 | 83 | 0.0 | 7.2 | 120 | 12.2 | 1010.5 | 142 |
| 16:30 - 17:00 | 16.6 | 16.6 | 16.4 | 82 | 0.0 | 6.5 | 135 | 10.8 | 1010.5 | 71 |
| 17:00 - 17:30 | 16.5 | 16.5 | 16.4 | 83 | 0.0 | 4.3 | 108 | 7.9 | 1010.3 | 100 |
| 17:30 - 18:00 | 16.2 | 16.5 | 15.9 | 84 | 0.0 | 4.7 | 121 | 9.4 | 1010.2 | 45 |
| 18:00 - 18:30 | 15.8 | 16.2 | 15.6 | 85 | 0.0 | 5.8 | 141 | 25.9 | 1010.7 | 4 |
| 18:30 - 19:00 | 12.9 | 16.0 | 11.8 | 83 | 2.7 | 16.9 | 274 | 36.4 | 1012.2 | 1 |
| 19:00 - 19:30 | 12.0 | 12.5 | 11.7 | 93 | 1.5 | 13.0 | 277 | 23.8 | 1013.0 | 0 |
| 19:30 - 20:00 | 12.5 | 12.6 | 12.3 | 90 | 0.0 | 7.9 | 261 | 14.8 | 1012.5 | 0 |
| 20:00 - 20:30 | 12.3 | 12.6 | 11.9 | 92 | 0.0 | 4.7 | 216 | 10.4 | 1012.5 | 0 |
| 20:30 - 21:00 | 11.8 | 11.9 | 11.7 | 95 | 0.0 | 2.9 | 274 | 7.6 | 1012.7 | 0 |
| 21:00 - 21:30 | 11.1 | 11.7 | 10.8 | 95 | 0.0 | 3.2 | 345 | 8.6 | 1012.9 | 0 |
| 21:30 - 22:00 | 10.5 | 11.0 | 10.0 | 95 | 0.0 | 3.6 | 320 | 11.9 | 1012.9 | 0 |
| 22:00 - 22:30 | (s/d) | (s/d) | (s/d) | (s/d) | (s/d) | (s/d) | (s/d) | (s/d) | (s/d) | (s/d) |
Les dades en taronja només han passat un control de qualitat automàtic. Resta pendent la seva validació definitiva.